createdAt,value
2017-12-08T00:00:40.137Z,4.28
2017-12-08T00:03:07.900Z,5.45
2017-12-08T00:05:35.749Z,4.55
2017-12-08T00:08:05.911Z,4.20
2017-12-08T00:10:36.169Z,4.05
2017-12-08T00:13:05.831Z,4.15
2017-12-08T00:15:36.288Z,3.80
2017-12-08T00:18:05.564Z,3.62
2017-12-08T00:20:42.960Z,3.37
2017-12-08T00:23:12.772Z,3.35
2017-12-08T00:25:43.456Z,4.03
2017-12-08T00:28:13.317Z,4.20
2017-12-08T00:30:43.311Z,3.72
2017-12-08T00:33:13.801Z,4.90
2017-12-08T00:35:43.492Z,3.95
2017-12-08T00:38:13.025Z,3.35
2017-12-08T00:40:42.500Z,3.80
2017-12-08T00:43:12.270Z,3.05
2017-12-08T00:45:41.887Z,3.78
2017-12-08T00:48:11.573Z,3.10
2017-12-08T00:50:41.918Z,3.67
2017-12-08T00:53:11.076Z,2.80
2017-12-08T00:55:40.519Z,3.72
2017-12-08T00:58:09.502Z,3.30
2017-12-08T01:00:39.174Z,3.12
2017-12-08T01:03:09.679Z,3.08
2017-12-08T01:05:37.751Z,3.40
2017-12-08T01:08:07.204Z,2.28
2017-12-08T01:10:38.267Z,3.25
2017-12-08T01:13:07.832Z,3.65
2017-12-08T01:15:37.929Z,2.97
2017-12-08T01:18:07.540Z,2.50
2017-12-08T01:20:37.072Z,3.10
2017-12-08T01:23:06.694Z,2.87
2017-12-08T01:25:36.020Z,3.12
2017-12-08T01:28:05.619Z,2.97
2017-12-08T01:30:34.994Z,2.30
2017-12-08T01:33:05.145Z,2.37
2017-12-08T01:35:32.738Z,2.12
2017-12-08T01:38:00.322Z,2.50
2017-12-08T01:40:27.938Z,2.70
2017-12-08T01:42:55.504Z,2.45
2017-12-08T01:45:23.125Z,2.15
2017-12-08T01:47:51.555Z,2.00
2017-12-08T01:50:19.287Z,2.12
2017-12-08T01:52:46.896Z,2.30
2017-12-08T01:55:14.541Z,2.22
2017-12-08T01:57:42.116Z,2.53
2017-12-08T02:00:09.690Z,2.42
2017-12-08T02:02:37.281Z,2.22
2017-12-08T02:05:05.612Z,2.00
2017-12-08T02:07:33.212Z,2.72
2017-12-08T02:10:01.554Z,2.87
2017-12-08T02:12:29.153Z,2.17
2017-12-08T02:14:57.496Z,2.30
2017-12-08T02:17:25.118Z,2.50
2017-12-08T02:19:52.676Z,2.90
2017-12-08T02:22:21.042Z,2.65
2017-12-08T02:24:48.631Z,2.30
2017-12-08T02:27:16.260Z,3.08
2017-12-08T02:29:43.882Z,2.42
2017-12-08T02:32:11.518Z,2.20
2017-12-08T02:34:39.105Z,2.72
2017-12-08T02:37:06.675Z,2.65
2017-12-08T02:39:34.392Z,2.42
2017-12-08T02:42:01.973Z,2.40
2017-12-08T02:44:29.579Z,2.60
2017-12-08T02:46:57.905Z,4.20
2017-12-08T02:49:25.516Z,2.75
2017-12-08T02:51:53.918Z,2.65
2017-12-08T02:54:21.472Z,2.85
2017-12-08T02:56:49.022Z,3.28
2017-12-08T02:59:17.383Z,2.87
2017-12-08T03:01:44.949Z,3.22
2017-12-08T03:04:13.360Z,2.10
2017-12-08T03:06:40.905Z,2.28
2017-12-08T03:09:09.236Z,2.80
2017-12-08T03:11:36.825Z,3.30
2017-12-08T03:14:05.205Z,3.15
2017-12-08T03:16:32.769Z,3.05
2017-12-08T03:19:01.126Z,3.17
2017-12-08T03:21:28.744Z,3.10
2017-12-08T03:23:56.354Z,3.00
2017-12-08T03:26:23.910Z,3.37
2017-12-08T03:28:51.542Z,2.72
2017-12-08T03:31:19.106Z,2.80
2017-12-08T03:33:46.693Z,3.15
2017-12-08T03:36:14.285Z,2.75
2017-12-08T03:38:41.964Z,3.03
2017-12-08T03:41:09.551Z,2.60
2017-12-08T03:43:37.148Z,3.17
2017-12-08T03:46:04.708Z,2.90
2017-12-08T03:48:32.281Z,2.78
2017-12-08T03:50:59.917Z,2.60
2017-12-08T03:53:27.480Z,2.85
2017-12-08T03:55:55.028Z,2.53
2017-12-08T03:58:22.659Z,2.10
2017-12-08T04:00:52.611Z,2.35
2017-12-08T04:03:20.194Z,1.83
2017-12-08T04:05:47.740Z,2.53
2017-12-08T04:08:15.330Z,2.80
2017-12-08T04:10:43.655Z,2.55
2017-12-08T04:13:11.265Z,2.72
2017-12-08T04:15:39.602Z,2.60
2017-12-08T04:18:07.147Z,2.50
2017-12-08T04:20:34.757Z,2.55
2017-12-08T04:23:02.340Z,2.28
2017-12-08T04:25:30.716Z,2.37
2017-12-08T04:27:59.060Z,2.50
2017-12-08T04:30:26.615Z,2.58
2017-12-08T04:32:54.229Z,2.03
2017-12-08T04:35:21.810Z,1.90
2017-12-08T04:37:49.412Z,2.05
2017-12-08T04:40:17.005Z,2.85
2017-12-08T04:42:45.348Z,2.33
2017-12-08T04:45:12.943Z,3.00
2017-12-08T04:47:40.506Z,2.22
2017-12-08T04:50:08.065Z,2.15
2017-12-08T04:52:35.688Z,2.05
2017-12-08T04:55:03.244Z,2.60
2017-12-08T04:57:30.802Z,2.47
2017-12-08T04:59:58.393Z,2.58
2017-12-08T05:02:26.722Z,2.03
2017-12-08T05:04:54.312Z,2.90
2017-12-08T05:07:21.855Z,2.28
2017-12-08T05:09:49.397Z,2.40
2017-12-08T05:12:16.986Z,2.28
2017-12-08T05:14:44.559Z,2.55
2017-12-08T05:17:12.166Z,2.60
2017-12-08T05:19:39.765Z,2.37
2017-12-08T05:22:07.358Z,2.55
2017-12-08T05:24:35.686Z,3.28
2017-12-08T05:27:03.281Z,2.85
2017-12-08T05:29:30.858Z,2.65
2017-12-08T05:31:59.225Z,2.80
2017-12-08T05:34:26.777Z,3.22
2017-12-08T05:36:54.410Z,2.30
2017-12-08T05:39:22.018Z,3.08
2017-12-08T05:41:49.556Z,3.50
2017-12-08T05:44:17.167Z,2.72
2017-12-08T05:46:44.767Z,3.12
2017-12-08T05:49:12.368Z,3.50
2017-12-08T05:51:40.750Z,2.85
2017-12-08T05:54:09.138Z,2.90
2017-12-08T05:56:36.700Z,3.95
2017-12-08T05:59:04.268Z,3.00
2017-12-08T06:01:31.872Z,3.35
2017-12-08T06:03:59.447Z,4.00
2017-12-08T06:06:27.071Z,3.20
2017-12-08T06:08:54.645Z,3.85
2017-12-08T06:11:22.277Z,3.70
2017-12-08T06:13:49.846Z,3.60
2017-12-08T06:16:17.419Z,3.45
2017-12-08T06:18:45.041Z,3.70
2017-12-08T06:21:13.366Z,3.85
2017-12-08T06:23:40.928Z,3.30
2017-12-08T06:26:08.510Z,3.90
2017-12-08T06:28:36.078Z,3.20
2017-12-08T06:31:03.707Z,4.40
2017-12-08T06:33:31.301Z,4.32
2017-12-08T06:35:58.872Z,4.03
2017-12-08T06:38:27.242Z,4.68
2017-12-08T06:40:55.627Z,4.15
2017-12-08T06:43:24.037Z,5.60
2017-12-08T06:45:51.619Z,4.30
2017-12-08T06:48:19.272Z,5.35
2017-12-08T06:50:46.921Z,5.45
2017-12-08T06:53:14.470Z,5.35
2017-12-08T06:55:42.407Z,4.78
2017-12-08T06:58:09.974Z,5.78
2017-12-08T07:00:37.570Z,4.15
2017-12-08T07:03:05.150Z,4.80
2017-12-08T07:05:33.575Z,4.78
2017-12-08T07:08:01.923Z,5.10
2017-12-08T07:10:29.560Z,4.65
2017-12-08T07:12:57.148Z,5.10
2017-12-08T07:15:26.705Z,5.20
2017-12-08T07:17:55.097Z,4.45
2017-12-08T07:20:22.669Z,3.72
2017-12-08T07:22:51.061Z,4.60
2017-12-08T07:25:18.647Z,4.78
2017-12-08T07:27:46.815Z,4.95
2017-12-08T07:30:15.207Z,5.00
2017-12-08T07:32:43.036Z,6.87
2017-12-08T07:35:14.634Z,4.18
2017-12-08T07:37:46.889Z,5.50
2017-12-08T07:40:14.485Z,4.28
2017-12-08T07:42:42.872Z,4.62
2017-12-08T07:45:12.268Z,4.20
2017-12-08T07:47:39.887Z,4.93
2017-12-08T07:50:09.117Z,5.65
2017-12-08T07:52:36.713Z,4.87
2017-12-08T07:55:12.155Z,4.85
2017-12-08T07:57:39.740Z,4.20
2017-12-08T08:00:07.330Z,5.15
2017-12-08T08:02:35.204Z,4.50
2017-12-08T08:05:02.839Z,4.53
2017-12-08T08:07:30.434Z,4.60
2017-12-08T08:09:58.019Z,4.65
2017-12-08T08:12:25.721Z,4.75
2017-12-08T08:15:11.713Z,5.47
2017-12-08T08:17:39.325Z,3.80
2017-12-08T08:20:06.968Z,4.25
2017-12-08T08:22:34.851Z,4.85
2017-12-08T08:25:03.213Z,4.40
2017-12-08T08:27:31.925Z,4.43
2017-12-08T08:29:59.557Z,4.37
2017-12-08T08:32:27.188Z,5.95
2017-12-08T08:34:54.764Z,6.87
2017-12-08T08:37:22.405Z,3.80
2017-12-08T08:39:50.059Z,3.90
2017-12-08T08:42:17.624Z,4.15
2017-12-08T08:44:45.216Z,3.87
2017-12-08T08:47:13.672Z,4.62
2017-12-08T08:49:41.290Z,4.47
2017-12-08T08:52:09.668Z,3.65
2017-12-08T08:54:37.288Z,5.18
2017-12-08T08:57:05.653Z,4.55
2017-12-08T08:59:33.347Z,4.55
2017-12-08T09:02:00.981Z,3.60
2017-12-08T09:04:34.865Z,4.03
2017-12-08T09:07:04.679Z,4.05
2017-12-08T09:09:32.420Z,3.85
2017-12-08T09:12:00.122Z,4.28
2017-12-08T09:14:36.261Z,4.72
2017-12-08T09:17:03.928Z,5.53
2017-12-08T09:19:31.731Z,5.37
2017-12-08T09:21:59.387Z,4.20
2017-12-08T09:24:27.065Z,4.07
2017-12-08T09:26:54.643Z,4.50
2017-12-08T09:29:22.231Z,3.65
2017-12-08T09:31:51.183Z,3.70
2017-12-08T09:34:18.868Z,3.25
2017-12-08T09:36:47.573Z,3.47
2017-12-08T09:39:15.219Z,3.40
2017-12-08T09:41:43.656Z,3.40
2017-12-08T09:44:11.278Z,4.28
2017-12-08T09:46:38.943Z,4.78
2017-12-08T09:49:19.844Z,3.25
2017-12-08T09:51:48.140Z,4.20
2017-12-08T09:54:15.766Z,3.87
2017-12-08T09:56:43.354Z,3.78
2017-12-08T09:59:10.990Z,3.47
2017-12-08T10:01:38.630Z,4.20
2017-12-08T10:04:07.008Z,3.62
2017-12-08T10:06:35.477Z,3.22
2017-12-08T10:09:03.904Z,4.05
2017-12-08T10:11:31.504Z,3.95
2017-12-08T10:13:59.278Z,3.62
2017-12-08T10:16:27.686Z,2.92
2017-12-08T10:18:56.085Z,3.60
2017-12-08T10:21:23.709Z,3.80
2017-12-08T10:23:51.320Z,4.60
2017-12-08T10:26:18.947Z,3.17
2017-12-08T10:28:46.485Z,4.00
2017-12-08T10:31:14.917Z,3.75
2017-12-08T10:33:42.493Z,3.20
2017-12-08T10:36:10.171Z,3.70
2017-12-08T10:38:37.765Z,3.78
2017-12-08T10:41:06.119Z,5.32
2017-12-08T10:43:33.764Z,3.25
2017-12-08T10:46:01.348Z,4.35
2017-12-08T10:48:30.190Z,3.65
2017-12-08T10:50:57.810Z,3.50
2017-12-08T10:53:26.213Z,3.20
2017-12-08T10:55:55.091Z,5.25
2017-12-08T10:58:23.550Z,4.65
2017-12-08T11:00:51.128Z,4.70
2017-12-08T11:03:21.193Z,5.35
2017-12-08T11:05:49.376Z,4.43
2017-12-08T11:08:18.197Z,4.22
2017-12-08T11:10:46.582Z,3.40
2017-12-08T11:13:14.287Z,3.92
2017-12-08T11:15:41.954Z,3.10
2017-12-08T11:18:09.549Z,2.90
2017-12-08T11:20:37.456Z,4.60
2017-12-08T11:23:05.330Z,3.80
2017-12-08T11:25:32.926Z,3.15
2017-12-08T11:28:00.547Z,3.83
2017-12-08T11:30:28.295Z,3.47
2017-12-08T11:32:56.759Z,3.55
2017-12-08T11:35:25.167Z,3.97
2017-12-08T11:37:52.819Z,2.37
2017-12-08T11:40:20.473Z,3.05
2017-12-08T11:42:48.100Z,2.83
2017-12-08T11:45:15.741Z,3.72
2017-12-08T11:47:43.357Z,2.78
2017-12-08T11:51:47.453Z,3.78
2017-12-08T11:54:15.006Z,4.10
2017-12-08T11:56:42.704Z,3.45
2017-12-08T11:59:10.292Z,4.07
2017-12-08T12:01:38.805Z,3.40
2017-12-08T12:04:06.420Z,3.72
2017-12-08T12:06:34.109Z,4.03
2017-12-08T12:09:01.780Z,4.30
2017-12-08T12:11:29.438Z,3.50
2017-12-08T12:13:57.075Z,3.03
2017-12-08T12:16:25.486Z,8.80
2017-12-08T12:18:53.125Z,5.37
2017-12-08T12:21:21.764Z,3.78
2017-12-08T12:23:49.681Z,4.93
2017-12-08T12:26:18.440Z,4.97
2017-12-08T12:28:47.510Z,2.78
2017-12-08T12:31:15.127Z,1.30
2017-12-08T12:33:42.761Z,1.85
2017-12-08T12:36:10.356Z,1.20
2017-12-08T12:38:38.701Z,1.33
2017-12-08T12:41:06.369Z,1.67
2017-12-08T12:43:33.973Z,1.80
2017-12-08T12:46:01.557Z,1.77
2017-12-08T12:48:29.161Z,2.25
2017-12-08T12:50:56.824Z,1.92
2017-12-08T12:53:24.468Z,1.60
2017-12-08T12:55:52.139Z,1.75
2017-12-08T12:58:20.412Z,1.55
2017-12-08T13:00:48.173Z,1.45
2017-12-08T13:03:15.814Z,2.15
2017-12-08T13:05:45.382Z,1.75
2017-12-08T13:08:13.744Z,1.92
2017-12-08T13:10:41.359Z,2.00
2017-12-08T13:13:08.984Z,1.55
2017-12-08T13:15:36.741Z,1.50
2017-12-08T13:18:04.352Z,1.42
2017-12-08T13:20:32.686Z,1.40
2017-12-08T13:23:01.034Z,2.00
2017-12-08T13:25:28.625Z,1.37
2017-12-08T13:27:57.104Z,1.25
2017-12-08T13:30:25.431Z,2.00
2017-12-08T13:32:54.378Z,1.37
2017-12-08T13:35:22.785Z,1.67
2017-12-08T13:37:50.378Z,1.00
2017-12-08T13:40:17.986Z,1.70
2017-12-08T13:42:45.633Z,1.52
2017-12-08T13:45:13.985Z,11.70
2017-12-08T13:47:41.582Z,11.70
2017-12-08T13:50:09.923Z,1.73
2017-12-08T13:52:37.569Z,1.90
2017-12-08T13:55:16.788Z,2.00
2017-12-08T13:57:45.145Z,2.03
2017-12-08T14:00:13.513Z,2.05
2017-12-08T14:02:41.872Z,1.85
2017-12-08T14:05:09.499Z,2.10
2017-12-08T14:07:37.090Z,2.40
2017-12-08T14:10:04.745Z,2.20
2017-12-08T14:12:32.322Z,3.00
2017-12-08T14:14:59.914Z,1.90
2017-12-08T14:17:31.271Z,2.42
2017-12-08T14:20:00.484Z,2.78
2017-12-08T14:22:28.884Z,2.00
2017-12-08T14:24:56.535Z,2.50
2017-12-08T14:27:24.164Z,3.03
2017-12-08T14:29:51.815Z,2.58
2017-12-08T14:32:20.193Z,2.28
2017-12-08T14:34:48.541Z,4.87
2017-12-08T14:37:16.192Z,3.08
2017-12-08T14:39:45.052Z,2.50
2017-12-08T14:42:12.641Z,3.40
2017-12-08T14:44:40.263Z,3.70
2017-12-08T14:47:08.741Z,2.40
2017-12-08T14:49:36.381Z,2.20
2017-12-08T14:52:03.971Z,2.28
2017-12-08T14:54:34.944Z,2.40
2017-12-08T14:57:02.578Z,1.95
2017-12-08T14:59:30.120Z,1.87
2017-12-08T15:01:58.831Z,3.00
2017-12-08T15:04:26.840Z,3.58
2017-12-08T15:06:55.552Z,2.95
2017-12-08T15:09:23.619Z,3.45
2017-12-08T15:11:51.486Z,3.55
2017-12-08T15:14:37.249Z,3.05
2017-12-08T15:17:06.577Z,3.50
2017-12-08T15:19:35.470Z,4.10
2017-12-08T15:22:03.581Z,4.57
2017-12-08T15:24:31.286Z,4.40
2017-12-08T15:26:59.168Z,2.90
2017-12-08T15:29:26.967Z,3.30
2017-12-08T15:31:54.652Z,3.40
2017-12-08T15:34:22.300Z,4.12
2017-12-08T15:36:50.647Z,3.90
2017-12-08T15:39:18.251Z,4.10
2017-12-08T15:41:45.878Z,2.15
2017-12-08T15:44:13.500Z,2.83
2017-12-08T15:46:41.144Z,3.03
2017-12-08T15:49:08.759Z,3.10
2017-12-08T15:51:39.500Z,4.20
2017-12-08T15:54:09.772Z,3.20
2017-12-08T15:56:38.673Z,4.12
2017-12-08T15:59:07.837Z,3.60
2017-12-08T16:01:35.429Z,3.10
2017-12-08T16:04:03.033Z,2.67
2017-12-08T16:06:31.398Z,3.83
2017-12-08T16:08:59.108Z,3.25
2017-12-08T16:11:26.722Z,2.37
2017-12-08T16:13:54.322Z,2.92
2017-12-08T16:16:21.921Z,4.43
2017-12-08T16:18:49.542Z,2.95
2017-12-08T16:21:17.125Z,3.10
2017-12-08T16:23:44.702Z,4.10
2017-12-08T16:26:12.312Z,2.95
2017-12-08T16:28:40.901Z,5.12
2017-12-08T16:31:10.245Z,4.10
2017-12-08T16:33:37.803Z,3.30
2017-12-08T16:36:05.359Z,3.05
2017-12-08T16:38:32.958Z,2.83
2017-12-08T16:41:01.309Z,3.12
2017-12-08T16:43:28.901Z,2.30
2017-12-08T16:45:57.242Z,3.03
2017-12-08T16:48:24.841Z,2.97
2017-12-08T16:50:52.417Z,2.03
2017-12-08T16:53:19.968Z,2.40
2017-12-08T16:55:48.337Z,2.58
2017-12-08T16:58:15.950Z,2.03
2017-12-08T17:00:43.609Z,2.80
2017-12-08T17:03:11.689Z,2.17
2017-12-08T17:05:39.289Z,2.40
2017-12-08T17:08:06.882Z,3.45
2017-12-08T17:10:37.715Z,2.00
2017-12-08T17:13:09.047Z,2.70
2017-12-08T17:15:38.910Z,2.35
2017-12-08T17:18:08.946Z,2.75
2017-12-08T17:20:38.598Z,2.60
2017-12-08T17:23:09.242Z,2.85
2017-12-08T17:25:39.132Z,2.53
2017-12-08T17:28:10.593Z,1.95
2017-12-08T17:30:40.782Z,3.70
2017-12-08T17:33:10.402Z,3.20
2017-12-08T17:35:39.964Z,2.95
2017-12-08T17:38:09.377Z,2.50
2017-12-08T17:40:38.917Z,2.65
2017-12-08T17:43:08.497Z,3.58
2017-12-08T17:45:38.673Z,2.97
2017-12-08T17:48:08.855Z,2.90
2017-12-08T17:50:38.251Z,3.15
2017-12-08T17:53:07.670Z,3.90
2017-12-08T17:55:44.470Z,3.17
2017-12-08T17:58:15.091Z,4.37
2017-12-08T18:00:46.626Z,4.53
2017-12-08T18:03:19.796Z,3.12
2017-12-08T18:05:49.486Z,3.75
2017-12-08T18:08:19.423Z,3.03
2017-12-08T18:10:49.581Z,3.80
2017-12-08T18:13:19.656Z,3.40
2017-12-08T18:15:49.964Z,3.62
2017-12-08T18:18:20.080Z,3.97
2017-12-08T18:20:50.800Z,4.18
2017-12-08T18:23:21.429Z,4.30
2017-12-08T18:25:51.664Z,3.50
2017-12-08T18:28:22.335Z,3.55
2017-12-08T18:30:51.872Z,5.72
2017-12-08T18:33:21.736Z,5.00
2017-12-08T18:35:51.648Z,4.30
2017-12-08T18:38:21.347Z,5.97
2017-12-08T18:40:51.331Z,4.60
2017-12-08T18:43:21.011Z,3.95
2017-12-08T18:45:51.624Z,3.90
2017-12-08T18:48:21.428Z,4.47
2017-12-08T18:50:51.100Z,4.90
2017-12-08T18:53:21.916Z,3.97
2017-12-08T18:55:52.482Z,4.32
2017-12-08T18:58:22.374Z,4.55
2017-12-08T19:00:53.629Z,4.43
2017-12-08T19:03:29.125Z,3.60
2017-12-08T19:05:58.802Z,4.80
2017-12-08T19:08:28.854Z,4.82
2017-12-08T19:10:58.134Z,4.70
2017-12-08T19:13:27.860Z,4.57
2017-12-08T19:15:56.961Z,3.95
2017-12-08T19:18:27.611Z,3.60
2017-12-08T19:20:58.303Z,3.50
2017-12-08T19:23:28.557Z,3.47
2017-12-08T19:25:58.596Z,3.65
2017-12-08T19:28:28.958Z,3.62
2017-12-08T19:31:01.239Z,3.80
2017-12-08T19:33:31.865Z,4.62
2017-12-08T19:36:02.785Z,4.43
2017-12-08T19:38:31.326Z,4.70
2017-12-08T19:41:01.114Z,4.68
2017-12-08T19:43:31.991Z,4.47
2017-12-08T19:46:01.788Z,4.47
2017-12-08T19:48:32.582Z,3.53
2017-12-08T19:51:02.200Z,4.55
2017-12-08T19:53:32.304Z,5.32
2017-12-08T19:56:10.963Z,5.05
2017-12-08T19:58:40.904Z,5.12
2017-12-08T20:01:10.561Z,4.68
2017-12-08T20:03:41.407Z,4.60
2017-12-08T20:06:11.283Z,4.60
2017-12-08T20:08:40.918Z,4.90
2017-12-08T20:11:10.390Z,5.00
2017-12-08T20:13:38.158Z,4.30
2017-12-08T20:16:05.725Z,4.97
2017-12-08T20:18:33.358Z,4.87
2017-12-08T20:21:01.008Z,4.78
2017-12-08T20:23:28.698Z,4.43
2017-12-08T20:25:56.347Z,5.50
2017-12-08T20:28:24.012Z,4.90
2017-12-08T20:30:51.674Z,5.28
2017-12-08T20:33:19.366Z,4.62
2017-12-08T20:35:47.095Z,5.43
2017-12-08T20:38:14.871Z,4.45
2017-12-08T20:40:42.601Z,5.85
2017-12-08T20:43:10.244Z,6.37
2017-12-08T20:45:37.856Z,7.35
2017-12-08T20:48:05.646Z,5.78
2017-12-08T20:50:33.307Z,5.30
2017-12-08T20:53:00.911Z,5.70
2017-12-08T20:55:28.543Z,5.35
2017-12-08T20:57:56.926Z,5.10
2017-12-08T21:00:25.305Z,5.60
2017-12-08T21:03:02.455Z,5.22
2017-12-08T21:05:31.740Z,5.03
2017-12-08T21:08:01.078Z,4.43
2017-12-08T21:10:30.680Z,4.47
2017-12-08T21:12:59.639Z,4.50
2017-12-08T21:15:28.268Z,3.45
2017-12-08T21:17:56.902Z,3.90
2017-12-08T21:20:26.148Z,4.37
2017-12-08T21:22:54.924Z,4.70
2017-12-08T21:25:24.994Z,4.43
2017-12-08T21:27:54.828Z,4.37
2017-12-08T21:30:25.282Z,4.62
2017-12-08T21:32:54.859Z,4.75
2017-12-08T21:35:23.526Z,5.22
2017-12-08T21:37:54.761Z,4.80
2017-12-08T21:40:24.858Z,5.60
2017-12-08T21:42:55.036Z,4.70
2017-12-08T21:45:22.684Z,4.55
2017-12-08T21:47:50.243Z,4.18
2017-12-08T21:50:17.812Z,4.28
2017-12-08T21:52:45.425Z,5.28
2017-12-08T21:55:13.014Z,5.68
2017-12-08T21:57:41.325Z,4.47
2017-12-08T22:00:09.002Z,5.15
2017-12-08T22:02:36.642Z,5.85
2017-12-08T22:05:04.248Z,4.70
2017-12-08T22:07:31.846Z,5.37
2017-12-08T22:10:00.221Z,4.90
2017-12-08T22:12:27.946Z,5.07
2017-12-08T22:14:55.540Z,5.20
2017-12-08T22:17:23.926Z,4.32
2017-12-08T22:19:52.244Z,5.95
2017-12-08T22:22:19.993Z,6.25
2017-12-08T22:24:47.597Z,5.75
2017-12-08T22:27:15.956Z,6.62
2017-12-08T22:29:43.533Z,5.55
2017-12-08T22:32:11.098Z,6.60
2017-12-08T22:34:38.786Z,6.70
2017-12-08T22:37:07.155Z,6.45
2017-12-08T22:39:34.809Z,6.18
2017-12-08T22:42:02.384Z,5.95
2017-12-08T22:44:30.764Z,7.40
2017-12-08T22:46:59.120Z,6.85
2017-12-08T22:49:26.721Z,6.55
2017-12-08T22:51:54.325Z,5.82
2017-12-08T22:54:21.909Z,6.05
2017-12-08T22:56:49.521Z,6.40
2017-12-08T22:59:17.144Z,7.50
2017-12-08T23:01:44.741Z,7.15
2017-12-08T23:04:12.413Z,7.03
2017-12-08T23:06:40.014Z,6.25
2017-12-08T23:09:07.769Z,5.95
2017-12-08T23:11:35.536Z,6.15
2017-12-08T23:14:03.118Z,6.07
2017-12-08T23:16:31.505Z,6.15
2017-12-08T23:18:59.831Z,6.45
2017-12-08T23:21:27.458Z,5.35
2017-12-08T23:23:55.777Z,5.87
2017-12-08T23:26:23.336Z,5.55
2017-12-08T23:28:51.767Z,5.93
2017-12-08T23:31:19.324Z,4.78
2017-12-08T23:33:47.703Z,5.25
2017-12-08T23:36:16.030Z,5.20
2017-12-08T23:38:43.633Z,4.90
2017-12-08T23:41:11.241Z,4.43
2017-12-08T23:43:38.805Z,5.55
2017-12-08T23:46:06.357Z,4.47
2017-12-08T23:48:33.949Z,4.80
2017-12-08T23:51:01.511Z,4.53
2017-12-08T23:53:29.098Z,4.57
2017-12-08T23:55:56.733Z,4.60
2017-12-08T23:58:24.292Z,4.65
